createdAt,value
2018-01-28T00:01:43.985Z,29.83
2018-01-28T00:04:12.371Z,27.60
2018-01-28T00:06:40.661Z,27.10
2018-01-28T00:09:09.919Z,28.30
2018-01-28T00:11:38.305Z,25.90
2018-01-28T00:14:07.601Z,23.90
2018-01-28T00:16:36.827Z,24.97
2018-01-28T00:19:05.322Z,22.37
2018-01-28T00:21:33.954Z,24.10
2018-01-28T00:24:02.640Z,23.53
2018-01-28T00:26:31.126Z,23.55
2018-01-28T00:28:59.514Z,23.47
2018-01-28T00:31:27.994Z,22.00
2018-01-28T00:33:56.682Z,22.10
2018-01-28T00:36:25.436Z,21.35
2018-01-28T00:38:54.856Z,20.92
2018-01-28T00:41:23.297Z,19.40
2018-01-28T00:43:51.950Z,18.98
2018-01-28T00:46:20.334Z,18.60
2018-01-28T00:48:48.666Z,20.10
2018-01-28T00:51:16.376Z,19.53
2018-01-28T00:53:45.022Z,21.12
2018-01-28T00:56:13.554Z,18.87
2018-01-28T00:58:42.801Z,19.30
2018-01-28T01:01:11.289Z,16.70
2018-01-28T01:03:40.689Z,17.27
2018-01-28T01:06:08.937Z,18.07
2018-01-28T01:08:37.544Z,15.67
2018-01-28T01:11:05.933Z,16.27
2018-01-28T01:13:34.378Z,18.90
2018-01-28T01:16:03.040Z,17.43
2018-01-28T01:18:31.379Z,19.20
2018-01-28T01:21:00.144Z,18.10
2018-01-28T01:23:28.612Z,18.57
2018-01-28T01:25:57.108Z,18.90
2018-01-28T01:28:25.838Z,18.33
2018-01-28T01:30:54.976Z,18.97
2018-01-28T01:33:24.410Z,18.95
2018-01-28T01:35:53.078Z,18.30
2018-01-28T01:38:21.726Z,20.03
2018-01-28T01:40:50.394Z,20.12
2018-01-28T01:43:19.337Z,20.92
2018-01-28T01:45:47.719Z,21.27
2018-01-28T01:48:16.318Z,21.13
2018-01-28T01:50:44.705Z,19.60
2018-01-28T01:53:13.877Z,18.37
2018-01-28T01:55:42.542Z,20.15
2018-01-28T01:58:10.926Z,18.97
2018-01-28T02:00:39.609Z,17.83
2018-01-28T02:03:09.044Z,18.10
2018-01-28T02:05:37.901Z,19.50
2018-01-28T02:08:06.285Z,19.20
2018-01-28T02:10:34.681Z,19.10
2018-01-28T02:13:03.054Z,18.27
2018-01-28T02:15:31.709Z,18.23
2018-01-28T02:18:00.184Z,18.87
2018-01-28T02:20:29.609Z,18.23
2018-01-28T02:22:58.257Z,19.00
2018-01-28T02:25:27.163Z,19.20
2018-01-28T02:27:56.580Z,18.73
2018-01-28T02:30:25.989Z,18.85
2018-01-28T02:32:54.377Z,17.87
2018-01-28T02:35:22.753Z,18.17
2018-01-28T02:37:51.326Z,19.10
2018-01-28T02:40:19.716Z,17.77
2018-01-28T02:42:48.218Z,17.90
2018-01-28T02:45:16.885Z,17.50
2018-01-28T02:47:45.266Z,18.50
2018-01-28T02:50:14.010Z,17.83
2018-01-28T02:52:42.506Z,20.00
2018-01-28T02:55:10.978Z,18.85
2018-01-28T02:57:39.554Z,19.00
2018-01-28T03:00:08.313Z,19.83
2018-01-28T03:02:37.470Z,17.87
2018-01-28T03:05:06.130Z,17.08
2018-01-28T03:07:34.501Z,15.73
2018-01-28T03:10:02.888Z,16.47
2018-01-28T03:12:32.298Z,15.52
2018-01-28T03:15:00.671Z,16.63
2018-01-28T03:17:29.345Z,15.02
2018-01-28T03:19:57.869Z,15.10
2018-01-28T03:22:26.590Z,14.97
2018-01-28T03:24:56.009Z,16.17
2018-01-28T03:27:25.449Z,16.35
2018-01-28T03:29:53.833Z,14.30
2018-01-28T03:32:22.303Z,15.20
2018-01-28T03:34:50.501Z,14.53
2018-01-28T03:37:18.850Z,13.50
2018-01-28T03:39:47.237Z,15.07
2018-01-28T03:42:15.818Z,13.30
2018-01-28T03:44:44.498Z,14.00
2018-01-28T03:47:12.993Z,12.53
2018-01-28T03:49:41.450Z,14.10
2018-01-28T03:52:09.914Z,13.67
2018-01-28T03:54:38.302Z,12.10
2018-01-28T03:57:06.673Z,14.00
2018-01-28T03:59:35.182Z,13.50
2018-01-28T04:02:04.582Z,12.47
2018-01-28T04:04:33.306Z,13.63
2018-01-28T04:07:02.461Z,14.40
2018-01-28T04:09:30.846Z,13.17
2018-01-28T04:11:59.262Z,12.80
2018-01-28T04:14:27.918Z,14.50
2018-01-28T04:16:56.305Z,14.67
2018-01-28T04:19:24.303Z,15.30
2018-01-28T04:21:52.957Z,15.10
2018-01-28T04:24:21.496Z,14.73
2018-01-28T04:26:50.071Z,15.70
2018-01-28T04:29:18.767Z,14.77
2018-01-28T04:31:47.361Z,16.07
2018-01-28T04:34:16.114Z,17.42
2018-01-28T04:36:44.800Z,16.30
2018-01-28T04:39:13.291Z,15.33
2018-01-28T04:41:41.674Z,15.93
2018-01-28T04:44:10.354Z,17.40
2018-01-28T04:46:38.866Z,16.43
2018-01-28T04:49:07.712Z,16.30
2018-01-28T04:51:36.317Z,15.50
2018-01-28T04:54:04.705Z,15.30
2018-01-28T04:56:33.102Z,18.93
2018-01-28T04:59:01.286Z,17.63
2018-01-28T05:01:30.189Z,17.70
2018-01-28T05:03:59.511Z,15.85
2018-01-28T05:06:28.036Z,17.80
2018-01-28T05:08:56.553Z,16.90
2018-01-28T05:11:24.869Z,17.10
2018-01-28T05:13:53.337Z,16.12
2018-01-28T05:16:21.545Z,16.67
2018-01-28T05:18:49.759Z,16.60
2018-01-28T05:21:18.014Z,17.37
2018-01-28T05:23:46.214Z,17.13
2018-01-28T05:26:14.465Z,16.97
2018-01-28T05:28:43.741Z,17.90
2018-01-28T05:31:12.697Z,18.30
2018-01-28T05:33:41.085Z,16.13
2018-01-28T05:36:09.667Z,16.07
2018-01-28T05:38:38.326Z,17.90
2018-01-28T05:41:06.986Z,17.83
2018-01-28T05:43:35.642Z,17.83
2018-01-28T05:46:04.026Z,19.33
2018-01-28T05:48:32.410Z,18.33
2018-01-28T05:51:00.786Z,18.77
2018-01-28T05:53:29.012Z,15.80
2018-01-28T05:55:57.449Z,18.07
2018-01-28T05:58:26.130Z,16.80
2018-01-28T06:00:54.798Z,18.30
2018-01-28T06:03:23.201Z,19.33
2018-01-28T06:05:52.469Z,19.37
2018-01-28T06:08:21.369Z,18.70
2018-01-28T06:10:50.473Z,17.62
2018-01-28T06:13:18.849Z,20.97
2018-01-28T06:15:47.517Z,18.67
2018-01-28T06:18:16.181Z,18.12
2018-01-28T06:20:44.831Z,19.05
2018-01-28T06:23:13.511Z,17.67
2018-01-28T06:25:42.161Z,18.67
2018-01-28T06:28:10.803Z,19.23
2018-01-28T06:30:39.286Z,18.67
2018-01-28T06:33:07.985Z,17.30
2018-01-28T06:35:36.360Z,18.20
2018-01-28T06:38:05.586Z,18.17
2018-01-28T06:40:34.010Z,17.37
2018-01-28T06:43:03.252Z,18.30
2018-01-28T06:45:31.906Z,18.83
2018-01-28T06:48:00.658Z,17.83
2018-01-28T06:50:29.134Z,17.90
2018-01-28T06:52:57.598Z,19.80
2018-01-28T06:55:26.226Z,17.93
2018-01-28T06:57:54.873Z,20.37
2018-01-28T07:00:24.040Z,18.67
2018-01-28T07:02:52.694Z,16.30
2018-01-28T07:05:21.079Z,17.03
2018-01-28T07:07:49.465Z,17.83
2018-01-28T07:10:18.885Z,18.20
2018-01-28T07:12:47.537Z,18.67
2018-01-28T07:15:15.733Z,18.00
2018-01-28T07:17:44.109Z,17.90
2018-01-28T07:20:12.761Z,17.85
2018-01-28T07:22:41.148Z,18.50
2018-01-28T07:25:09.533Z,17.33
2018-01-28T07:27:38.941Z,17.00
2018-01-28T07:30:07.334Z,17.00
2018-01-28T07:32:35.999Z,17.73
2018-01-28T07:35:06.188Z,17.77
2018-01-28T07:37:35.283Z,16.83
2018-01-28T07:40:03.857Z,16.60
2018-01-28T07:42:32.271Z,17.27
2018-01-28T07:45:01.136Z,15.45
2018-01-28T07:47:29.553Z,16.50
2018-01-28T07:49:59.269Z,15.53
2018-01-28T07:52:27.937Z,16.17
2018-01-28T07:54:57.152Z,15.67
2018-01-28T07:57:26.193Z,15.70
2018-01-28T07:59:55.377Z,15.10
2018-01-28T08:02:23.765Z,16.37
2018-01-28T08:04:53.143Z,14.90
2018-01-28T08:07:22.356Z,14.77
2018-01-28T08:10:06.673Z,15.90
2018-01-28T08:12:37.343Z,15.80
2018-01-28T08:15:05.717Z,15.07
2018-01-28T08:17:34.261Z,15.50
2018-01-28T08:20:02.939Z,15.27
2018-01-28T08:22:31.454Z,15.50
2018-01-28T08:24:59.819Z,15.67
2018-01-28T08:27:29.979Z,15.80
2018-01-28T08:29:58.447Z,14.20
2018-01-28T08:32:27.017Z,15.10
2018-01-28T08:34:55.405Z,14.57
2018-01-28T08:37:24.557Z,14.80
2018-01-28T08:39:52.928Z,15.00
2018-01-28T08:42:21.322Z,14.13
2018-01-28T08:44:50.083Z,14.68
2018-01-28T08:47:18.370Z,14.20
2018-01-28T08:49:46.774Z,13.97
2018-01-28T08:52:15.657Z,13.18
2018-01-28T08:54:44.306Z,13.57
2018-01-28T08:57:13.742Z,14.05
2018-01-28T08:59:42.390Z,14.77
2018-01-28T09:02:10.902Z,13.40
2018-01-28T09:04:39.664Z,13.77
2018-01-28T09:07:08.357Z,12.57
2018-01-28T09:09:36.753Z,13.13
2018-01-28T09:12:05.417Z,13.87
2018-01-28T09:14:34.841Z,12.48
2018-01-28T09:17:04.130Z,13.80
2018-01-28T09:19:32.525Z,13.20
2018-01-28T09:22:00.967Z,12.83
2018-01-28T09:24:30.382Z,13.27
2018-01-28T09:26:58.781Z,12.73
2018-01-28T09:29:27.157Z,13.13
2018-01-28T09:31:55.535Z,12.10
2018-01-28T09:34:24.189Z,13.77
2018-01-28T09:36:52.591Z,12.80
2018-01-28T09:39:20.974Z,14.10
2018-01-28T09:41:49.373Z,14.27
2018-01-28T09:44:17.806Z,14.00
2018-01-28T09:46:47.227Z,13.25
2018-01-28T09:49:15.882Z,12.73
2018-01-28T09:51:45.328Z,11.73
2018-01-28T09:54:14.994Z,14.17
2018-01-28T09:56:44.197Z,13.00
2018-01-28T09:59:12.889Z,11.20
2018-01-28T10:01:41.603Z,11.20
2018-01-28T10:04:10.408Z,12.20
2018-01-28T10:06:39.859Z,10.50
2018-01-28T10:09:07.906Z,12.20
2018-01-28T10:11:37.054Z,11.60
2018-01-28T10:14:05.194Z,11.63
2018-01-28T10:16:33.630Z,11.20
2018-01-28T10:19:02.018Z,9.90
2018-01-28T10:21:31.376Z,10.87
2018-01-28T10:24:00.570Z,10.53
2018-01-28T10:26:29.890Z,11.30
2018-01-28T10:28:58.272Z,10.63
2018-01-28T10:31:26.734Z,10.60
2018-01-28T10:33:55.134Z,9.77
2018-01-28T10:36:23.536Z,9.67
2018-01-28T10:38:52.682Z,8.60
2018-01-28T10:41:21.290Z,9.60
2018-01-28T10:43:49.749Z,8.97
2018-01-28T10:46:18.017Z,9.23
2018-01-28T10:48:47.724Z,9.90
2018-01-28T10:51:16.161Z,8.63
2018-01-28T10:53:45.117Z,8.33
2018-01-28T10:56:13.513Z,8.37
2018-01-28T10:58:42.061Z,7.80
2018-01-28T11:01:10.441Z,7.80
2018-01-28T11:03:38.828Z,8.57
2018-01-28T11:06:07.285Z,8.48
2018-01-28T11:08:35.665Z,7.37
2018-01-28T11:11:04.086Z,7.87
2018-01-28T11:13:32.666Z,7.40
2018-01-28T11:16:01.298Z,6.70
2018-01-28T11:18:29.998Z,7.27
2018-01-28T11:20:58.381Z,7.37
2018-01-28T11:23:26.918Z,6.13
2018-01-28T11:25:55.429Z,7.17
2018-01-28T11:28:23.797Z,7.00
2018-01-28T11:30:52.183Z,7.23
2018-01-28T11:33:20.659Z,6.50
2018-01-28T11:35:49.062Z,6.60
2018-01-28T11:38:17.712Z,5.70
2018-01-28T11:40:46.293Z,6.00
2018-01-28T11:43:14.677Z,7.53
2018-01-28T11:45:42.717Z,6.00
2018-01-28T11:48:11.369Z,6.75
2018-01-28T11:50:40.070Z,5.55
2018-01-28T11:53:09.427Z,5.30
2018-01-28T11:55:38.859Z,5.80
2018-01-28T11:58:07.233Z,7.03
2018-01-28T12:00:35.923Z,6.27
2018-01-28T12:03:05.118Z,6.87
2018-01-28T12:05:33.534Z,6.27
2018-01-28T12:08:02.178Z,6.15
2018-01-28T12:10:30.791Z,8.40
2018-01-28T12:13:00.141Z,7.53
2018-01-28T12:15:28.504Z,7.37
2018-01-28T12:17:56.880Z,6.30
2018-01-28T12:20:25.394Z,8.00
2018-01-28T12:22:53.774Z,6.90
2018-01-28T12:25:22.161Z,7.13
2018-01-28T12:27:51.264Z,7.20
2018-01-28T12:30:19.634Z,7.03
2018-01-28T12:32:47.859Z,6.70
2018-01-28T12:35:17.317Z,5.82
2018-01-28T12:37:45.812Z,6.60
2018-01-28T12:40:14.188Z,7.03
2018-01-28T12:42:43.330Z,5.47
2018-01-28T12:45:12.131Z,5.90
2018-01-28T12:47:40.539Z,5.47
2018-01-28T12:50:09.890Z,5.27
2018-01-28T12:52:38.291Z,5.63
2018-01-28T12:55:06.948Z,5.65
2018-01-28T12:57:35.325Z,5.10
2018-01-28T13:00:03.871Z,4.60
2018-01-28T13:02:33.013Z,4.70
2018-01-28T13:05:02.429Z,5.93
2018-01-28T13:07:31.010Z,4.67
2018-01-28T13:09:59.409Z,4.77
2018-01-28T13:12:27.774Z,4.23
2018-01-28T13:14:56.418Z,4.60
2018-01-28T13:17:25.078Z,5.10
2018-01-28T13:19:53.474Z,4.90
2018-01-28T13:22:22.110Z,4.75
2018-01-28T13:24:50.862Z,4.78
2018-01-28T13:27:19.366Z,5.43
2018-01-28T13:29:47.738Z,4.90
2018-01-28T13:32:16.126Z,5.60
2018-01-28T13:34:44.776Z,3.53
2018-01-28T13:37:13.154Z,4.50
2018-01-28T13:39:41.735Z,4.30
2018-01-28T13:42:10.389Z,4.57
2018-01-28T13:44:39.161Z,3.13
2018-01-28T13:47:07.846Z,3.30
2018-01-28T13:49:37.110Z,3.53
2018-01-28T13:52:05.477Z,3.72
2018-01-28T13:54:34.893Z,2.60
2018-01-28T13:57:03.257Z,3.63
2018-01-28T13:59:31.977Z,3.37
2018-01-28T14:02:00.687Z,2.67
2018-01-28T14:04:29.817Z,3.53
2018-01-28T14:06:58.295Z,3.70
2018-01-28T14:09:26.947Z,3.43
2018-01-28T14:11:56.089Z,3.13
2018-01-28T14:14:24.496Z,3.10
2018-01-28T14:16:52.937Z,2.53
2018-01-28T14:19:21.916Z,3.50
2018-01-28T14:21:50.610Z,3.00
2018-01-28T14:24:19.124Z,2.93
2018-01-28T14:26:47.760Z,2.67
2018-01-28T14:29:16.370Z,2.67
2018-01-28T14:31:45.390Z,2.80
2018-01-28T14:34:13.972Z,2.60
2018-01-28T14:36:42.354Z,2.63
2018-01-28T14:39:10.482Z,2.27
2018-01-28T14:41:39.702Z,2.60
2018-01-28T14:44:08.926Z,2.25
2018-01-28T14:46:37.298Z,2.53
2018-01-28T14:49:07.121Z,2.40
2018-01-28T14:51:35.318Z,2.33
2018-01-28T14:54:03.782Z,1.67
2018-01-28T14:56:32.446Z,2.10
2018-01-28T14:59:01.086Z,2.05
2018-01-28T15:01:29.469Z,2.40
2018-01-28T15:03:57.864Z,2.30
2018-01-28T15:06:26.241Z,1.70
2018-01-28T15:08:54.629Z,1.77
2018-01-28T15:11:23.273Z,1.58
2018-01-28T15:13:51.269Z,1.80
2018-01-28T15:16:19.653Z,1.63
2018-01-28T15:18:48.033Z,1.83
2018-01-28T15:21:16.541Z,1.80
2018-01-28T15:23:45.695Z,1.73
2018-01-28T15:26:14.073Z,1.67
2018-01-28T15:28:42.867Z,1.90
2018-01-28T15:31:12.297Z,1.58
2018-01-28T15:33:40.952Z,1.77
2018-01-28T15:36:09.360Z,1.30
2018-01-28T15:38:38.016Z,1.63
2018-01-28T15:41:06.386Z,1.33
2018-01-28T15:43:35.290Z,1.33
2018-01-28T15:46:04.480Z,1.50
2018-01-28T15:48:32.854Z,1.57
2018-01-28T15:51:01.038Z,1.80
2018-01-28T15:53:29.394Z,1.10
2018-01-28T15:55:58.357Z,1.15
2018-01-28T15:58:27.034Z,1.90
2018-01-28T16:00:57.080Z,2.07
2018-01-28T16:03:25.473Z,2.30
2018-01-28T16:05:54.502Z,2.13
2018-01-28T16:08:23.317Z,2.10
2018-01-28T16:10:52.462Z,2.20
2018-01-28T16:13:20.935Z,1.80
2018-01-28T16:15:50.350Z,2.12
2018-01-28T16:18:19.006Z,2.10
2018-01-28T16:20:48.410Z,2.80
2018-01-28T16:23:16.885Z,2.03
2018-01-28T16:25:44.793Z,1.80
2018-01-28T16:28:13.201Z,2.00
2018-01-28T16:30:41.774Z,3.10
2018-01-28T16:33:10.145Z,2.10
2018-01-28T16:35:38.363Z,2.07
2018-01-28T16:38:07.809Z,1.80
2018-01-28T16:40:36.186Z,2.30
2018-01-28T16:43:05.033Z,2.37
2018-01-28T16:45:33.703Z,1.90
2018-01-28T16:48:02.159Z,1.57
2018-01-28T16:50:30.534Z,1.43
2018-01-28T16:52:59.680Z,1.50
2018-01-28T16:55:28.092Z,1.57
2018-01-28T16:57:56.462Z,2.20
2018-01-28T17:00:25.370Z,1.77
2018-01-28T17:02:53.988Z,2.03
2018-01-28T17:05:22.634Z,1.85
2018-01-28T17:07:52.020Z,2.00
2018-01-28T17:10:22.440Z,1.77
2018-01-28T17:12:51.096Z,2.45
2018-01-28T17:15:19.282Z,2.40
2018-01-28T17:17:48.717Z,2.28
2018-01-28T17:20:17.090Z,2.37
2018-01-28T17:22:45.570Z,2.37
2018-01-28T17:25:14.062Z,2.77
2018-01-28T17:27:43.194Z,2.37
2018-01-28T17:30:11.832Z,2.37
2018-01-28T17:32:40.575Z,2.80
2018-01-28T17:35:14.706Z,2.08
2018-01-28T17:37:43.474Z,2.17
2018-01-28T17:40:11.676Z,2.17
2018-01-28T17:42:40.062Z,2.20
2018-01-28T17:45:08.449Z,2.13
2018-01-28T17:47:36.864Z,2.27
2018-01-28T17:50:05.874Z,2.30
2018-01-28T17:52:34.514Z,2.05
2018-01-28T17:55:03.125Z,1.93
2018-01-28T17:57:31.792Z,2.30
2018-01-28T18:00:01.023Z,2.40
2018-01-28T18:02:29.609Z,8.70
2018-01-28T18:04:59.030Z,4.37
2018-01-28T18:07:28.432Z,2.47
2018-01-28T18:09:57.118Z,2.30
2018-01-28T18:12:25.713Z,2.10
2018-01-28T18:14:54.085Z,2.53
2018-01-28T18:17:23.066Z,1.70
2018-01-28T18:19:52.481Z,2.05
2018-01-28T18:22:20.963Z,2.17
2018-01-28T18:24:48.861Z,2.60
2018-01-28T18:27:17.595Z,2.10
2018-01-28T18:29:47.002Z,2.10
2018-01-28T18:32:15.375Z,2.53
2018-01-28T18:34:43.763Z,2.40
2018-01-28T18:37:12.155Z,1.90
2018-01-28T18:39:40.522Z,2.20
2018-01-28T18:42:08.915Z,1.80
2018-01-28T18:44:37.552Z,2.15
2018-01-28T18:47:06.184Z,2.15
2018-01-28T18:49:33.954Z,1.70
2018-01-28T18:52:02.598Z,2.20
2018-01-28T18:54:31.269Z,2.97
2018-01-28T18:56:59.648Z,2.95
2018-01-28T18:59:27.979Z,3.23
2018-01-28T19:01:56.546Z,3.20
2018-01-28T19:04:25.191Z,2.57
2018-01-28T19:06:54.505Z,2.10
2018-01-28T19:09:23.939Z,2.17
2018-01-28T19:11:52.317Z,2.10
2018-01-28T19:14:20.693Z,2.03
2018-01-28T19:16:49.061Z,2.10
2018-01-28T19:19:17.703Z,2.00
2018-01-28T19:21:46.336Z,2.25
2018-01-28T19:24:14.793Z,2.57
2018-01-28T19:26:43.352Z,2.40
2018-01-28T19:29:11.994Z,2.00
2018-01-28T19:31:40.625Z,2.50
2018-01-28T19:34:09.007Z,2.10
2018-01-28T19:36:37.094Z,2.57
2018-01-28T19:39:04.826Z,2.50
2018-01-28T19:41:33.202Z,2.57
2018-01-28T19:44:02.090Z,2.30
2018-01-28T19:46:30.678Z,2.30
2018-01-28T19:48:59.214Z,2.00
2018-01-28T19:51:27.644Z,1.77
2018-01-28T19:53:56.274Z,2.17
2018-01-28T19:56:24.922Z,3.08
2018-01-28T19:58:54.321Z,2.95
2018-01-28T20:01:23.377Z,2.20
2018-01-28T20:03:51.846Z,3.40
2018-01-28T20:06:20.461Z,2.70
2018-01-28T20:08:48.833Z,3.10
2018-01-28T20:11:17.281Z,2.60
2018-01-28T20:13:45.917Z,2.78
2018-01-28T20:16:15.317Z,1.92
2018-01-28T20:18:43.697Z,2.20
2018-01-28T20:21:13.097Z,2.20
2018-01-28T20:23:41.571Z,2.33
2018-01-28T20:26:10.998Z,2.12
2018-01-28T20:28:39.653Z,2.95
2018-01-28T20:31:08.043Z,2.53
2018-01-28T20:33:37.269Z,2.33
2018-01-28T20:36:05.692Z,2.60
2018-01-28T20:38:34.837Z,3.03
2018-01-28T20:41:03.514Z,3.15
2018-01-28T20:43:31.881Z,3.20
2018-01-28T20:46:00.478Z,1.97
2018-01-28T20:48:28.869Z,2.47
2018-01-28T20:50:57.252Z,2.30
2018-01-28T20:53:25.632Z,2.57
2018-01-28T20:58:28.212Z,2.97
2018-01-28T21:00:56.617Z,2.93
2018-01-28T21:03:25.266Z,2.53
2018-01-28T21:05:53.629Z,2.57
2018-01-28T21:08:22.013Z,2.73
2018-01-28T21:10:50.386Z,2.93
2018-01-28T21:13:18.754Z,3.07
2018-01-28T21:15:47.134Z,3.00
2018-01-28T21:18:15.828Z,2.67
2018-01-28T21:20:44.446Z,2.60
2018-01-28T21:23:13.135Z,5.53
2018-01-28T21:25:42.309Z,9.47
2018-01-28T21:28:10.970Z,5.57
2018-01-28T21:30:39.353Z,3.93
2018-01-28T21:33:08.758Z,3.37
2018-01-28T21:35:38.154Z,3.97
2018-01-28T21:38:07.558Z,5.20
2018-01-28T21:40:35.965Z,4.50
2018-01-28T21:43:04.588Z,4.43
2018-01-28T21:45:33.738Z,3.50
2018-01-28T21:48:02.186Z,2.65
2018-01-28T21:50:31.602Z,3.37
2018-01-28T21:53:00.302Z,3.25
2018-01-28T21:55:29.441Z,3.63
2018-01-28T21:57:58.333Z,3.10
2018-01-28T22:00:26.990Z,2.80
2018-01-28T22:02:55.621Z,3.00
2018-01-28T22:05:23.990Z,2.80
2018-01-28T22:07:52.241Z,2.77
2018-01-28T22:10:20.689Z,2.78
2018-01-28T22:12:49.063Z,3.03
2018-01-28T22:15:17.445Z,3.63
2018-01-28T22:17:45.837Z,2.37
2018-01-28T22:20:14.471Z,2.83
2018-01-28T22:22:43.692Z,2.83
2018-01-28T22:25:12.063Z,3.33
2018-01-28T22:27:40.744Z,3.27
2018-01-28T22:30:09.426Z,3.15
2018-01-28T22:32:37.841Z,2.77
2018-01-28T22:35:06.478Z,3.22
2018-01-28T22:37:34.877Z,3.40
2018-01-28T22:40:03.251Z,3.10
2018-01-28T22:42:31.921Z,2.47
2018-01-28T22:45:00.114Z,3.20
2018-01-28T22:47:28.150Z,2.78
2018-01-28T22:49:56.790Z,3.67
2018-01-28T22:52:25.257Z,3.40
2018-01-28T22:54:53.628Z,3.60
2018-01-28T22:57:22.153Z,3.10
2018-01-28T22:59:50.705Z,3.40
2018-01-28T23:02:19.338Z,2.67
2018-01-28T23:04:47.981Z,2.70
2018-01-28T23:07:16.433Z,2.53
2018-01-28T23:09:45.825Z,2.70
2018-01-28T23:12:14.224Z,3.00
2018-01-28T23:14:42.977Z,2.60
2018-01-28T23:17:11.571Z,3.17
2018-01-28T23:19:39.864Z,3.20
2018-01-28T23:22:08.252Z,2.87
2018-01-28T23:24:36.072Z,3.10
2018-01-28T23:27:05.522Z,3.00
2018-01-28T23:29:33.918Z,2.40
2018-01-28T23:32:03.166Z,3.50
2018-01-28T23:34:31.542Z,3.47
2018-01-28T23:36:59.737Z,2.87
2018-01-28T23:39:28.206Z,2.55
2018-01-28T23:41:55.933Z,3.17
2018-01-28T23:44:24.577Z,2.00
2018-01-28T23:46:53.319Z,1.80
2018-01-28T23:49:22.411Z,2.30
2018-01-28T23:51:50.793Z,2.50
2018-01-28T23:54:19.437Z,2.17
2018-01-28T23:56:47.617Z,2.70
2018-01-28T23:59:15.493Z,2.45
